createdAt,value
2022-11-26T00:01:17.376Z,13.45
2022-11-26T00:03:44.192Z,12.35
2022-11-26T00:06:29.003Z,12.37
2022-11-26T00:08:55.816Z,13.52
2022-11-26T00:11:22.554Z,11.85
2022-11-26T00:13:51.474Z,12.32
2022-11-26T00:16:18.321Z,12.77
2022-11-26T00:18:45.033Z,12.63
2022-11-26T00:21:34.711Z,12.45
2022-11-26T00:24:02.891Z,13.05
2022-11-26T00:26:29.528Z,12.57
2022-11-26T00:29:02.920Z,13.50
2022-11-26T00:31:29.645Z,12.43
2022-11-26T00:33:59.066Z,12.02
2022-11-26T00:36:32.305Z,12.37
2022-11-26T00:39:11.778Z,12.88
2022-11-26T00:41:38.863Z,12.50
2022-11-26T00:44:20.128Z,13.20
2022-11-26T00:46:46.871Z,12.75
2022-11-26T00:49:13.509Z,14.30
2022-11-26T00:51:40.193Z,14.20
2022-11-26T00:54:07.031Z,12.68
2022-11-26T00:56:37.736Z,14.27
2022-11-26T00:59:07.229Z,14.02
2022-11-26T01:01:33.963Z,14.60
2022-11-26T01:04:05.360Z,12.60
2022-11-26T01:06:33.849Z,12.20
2022-11-26T01:09:00.686Z,12.88
2022-11-26T01:11:27.270Z,12.88
2022-11-26T01:13:54.336Z,14.65
2022-11-26T01:16:28.777Z,12.75
2022-11-26T01:18:56.637Z,14.30
2022-11-26T01:21:23.881Z,12.50
2022-11-26T01:23:50.479Z,12.48
2022-11-26T01:26:18.923Z,13.50
2022-11-26T01:28:45.480Z,13.45
2022-11-26T01:31:16.594Z,12.65
2022-11-26T01:33:43.687Z,13.70
2022-11-26T01:36:25.531Z,13.65
2022-11-26T01:38:56.544Z,14.13
2022-11-26T01:41:57.468Z,13.82
2022-11-26T01:44:25.766Z,14.57
2022-11-26T01:46:52.710Z,15.02
2022-11-26T01:49:27.049Z,13.80
2022-11-26T01:52:14.373Z,14.20
2022-11-26T01:54:42.034Z,12.95
2022-11-26T01:57:11.824Z,14.55
2022-11-26T01:59:40.661Z,15.25
2022-11-26T02:02:07.588Z,13.95
2022-11-26T02:04:50.607Z,16.20
2022-11-26T02:07:17.230Z,13.98
2022-11-26T02:09:43.838Z,13.50
2022-11-26T02:12:10.476Z,15.82
2022-11-26T02:14:41.448Z,15.27
2022-11-26T02:17:20.182Z,12.48
2022-11-26T02:19:57.639Z,14.93
2022-11-26T02:23:06.747Z,14.20
2022-11-26T02:25:43.937Z,13.50
2022-11-26T02:28:38.381Z,14.27
2022-11-26T02:31:17.584Z,13.95
2022-11-26T02:34:01.470Z,14.18
2022-11-26T02:36:33.643Z,14.35
2022-11-26T02:39:16.979Z,14.32
2022-11-26T02:41:55.397Z,12.57
2022-11-26T02:44:23.592Z,13.48
2022-11-26T02:46:53.568Z,14.55
2022-11-26T02:49:21.584Z,13.75
2022-11-26T02:51:50.223Z,13.68
2022-11-26T02:54:16.785Z,13.57
2022-11-26T02:56:43.399Z,14.93
2022-11-26T02:59:10.239Z,14.18
2022-11-26T03:01:41.328Z,12.68
2022-11-26T03:04:12.154Z,13.68
2022-11-26T03:06:38.807Z,13.80
2022-11-26T03:09:05.802Z,13.02
2022-11-26T03:11:32.416Z,14.32
2022-11-26T03:14:00.129Z,13.88
2022-11-26T03:16:26.793Z,13.85
2022-11-26T03:18:53.608Z,16.10
2022-11-26T03:21:20.227Z,13.32
2022-11-26T03:23:46.798Z,15.07
2022-11-26T03:26:13.394Z,14.15
2022-11-26T03:28:39.962Z,14.70
2022-11-26T03:31:06.565Z,14.80
2022-11-26T03:33:33.178Z,14.07
2022-11-26T03:35:59.746Z,14.40
2022-11-26T03:38:26.478Z,13.25
2022-11-26T03:41:00.601Z,15.00
2022-11-26T03:43:27.329Z,13.98
2022-11-26T03:45:54.005Z,14.10
2022-11-26T03:48:20.604Z,15.35
2022-11-26T03:50:47.244Z,15.23
2022-11-26T03:53:13.832Z,14.32
2022-11-26T03:55:40.488Z,13.13
2022-11-26T03:58:07.074Z,14.80
2022-11-26T04:00:33.695Z,12.85
2022-11-26T04:03:00.371Z,12.60
2022-11-26T04:05:27.065Z,14.10
2022-11-26T04:07:53.741Z,13.27
2022-11-26T04:10:20.340Z,12.32
2022-11-26T04:12:46.902Z,13.18
2022-11-26T04:15:13.522Z,11.12
2022-11-26T04:17:40.109Z,11.05
2022-11-26T04:20:07.212Z,11.23
2022-11-26T04:22:33.836Z,11.52
2022-11-26T04:25:00.392Z,12.77
2022-11-26T04:27:26.943Z,12.23
2022-11-26T04:29:53.477Z,10.93
2022-11-26T04:32:20.045Z,10.98
2022-11-26T04:34:46.590Z,10.43
2022-11-26T04:37:13.150Z,12.02
2022-11-26T04:39:39.698Z,12.07
2022-11-26T04:42:06.326Z,11.82
2022-11-26T04:44:32.944Z,10.45
2022-11-26T04:47:00.833Z,11.02
2022-11-26T04:49:27.471Z,11.55
2022-11-26T04:51:54.146Z,11.25
2022-11-26T04:54:20.716Z,11.32
2022-11-26T04:56:47.382Z,11.25
2022-11-26T04:59:14.020Z,10.35
2022-11-26T05:01:40.694Z,10.82
2022-11-26T05:04:09.481Z,10.35
2022-11-26T05:06:36.424Z,10.60
2022-11-26T05:09:03.134Z,10.55
2022-11-26T05:11:29.703Z,11.00
2022-11-26T05:13:56.263Z,10.48
2022-11-26T05:16:22.870Z,10.07
2022-11-26T05:18:49.466Z,11.25
2022-11-26T05:21:16.058Z,9.43
2022-11-26T05:23:42.611Z,11.27
2022-11-26T05:26:09.164Z,9.88
2022-11-26T05:28:35.724Z,9.63
2022-11-26T05:31:02.878Z,9.23
2022-11-26T05:33:29.466Z,9.98
2022-11-26T05:35:56.096Z,9.38
2022-11-26T05:38:22.745Z,9.75
2022-11-26T05:40:49.421Z,10.80
2022-11-26T05:43:16.094Z,8.98
2022-11-26T05:45:42.823Z,9.23
2022-11-26T05:48:09.454Z,8.75
2022-11-26T05:50:36.005Z,8.60
2022-11-26T05:53:02.585Z,10.05
2022-11-26T05:55:29.255Z,8.35
2022-11-26T05:57:55.809Z,8.07
2022-11-26T06:00:22.517Z,10.20
2022-11-26T06:02:49.216Z,9.30
2022-11-26T06:05:15.961Z,8.40
2022-11-26T06:07:45.033Z,11.12
2022-11-26T06:10:12.285Z,10.02
2022-11-26T06:12:39.038Z,9.95
2022-11-26T06:15:06.161Z,9.02
2022-11-26T06:17:32.706Z,8.68
2022-11-26T06:19:59.289Z,10.23
2022-11-26T06:22:25.895Z,10.05
2022-11-26T06:24:52.449Z,8.77
2022-11-26T06:27:18.977Z,9.68
2022-11-26T06:29:45.547Z,8.95
2022-11-26T06:32:12.113Z,9.68
2022-11-26T06:34:38.971Z,10.32
2022-11-26T06:37:05.921Z,8.27
2022-11-26T06:39:32.494Z,9.48
2022-11-26T06:41:59.051Z,9.88
2022-11-26T06:44:25.661Z,8.95
2022-11-26T06:46:52.262Z,8.73
2022-11-26T06:49:18.848Z,8.68
2022-11-26T06:51:45.499Z,9.98
2022-11-26T06:54:12.641Z,8.07
2022-11-26T06:56:39.455Z,8.48
2022-11-26T06:59:06.305Z,8.52
2022-11-26T07:01:32.905Z,8.85
2022-11-26T07:03:59.667Z,9.43
2022-11-26T07:06:27.610Z,8.60
2022-11-26T07:08:55.403Z,9.75
2022-11-26T07:11:22.135Z,9.00
2022-11-26T07:13:48.733Z,8.93
2022-11-26T07:16:15.325Z,8.57
2022-11-26T07:18:42.042Z,7.80
2022-11-26T07:21:12.450Z,8.13
2022-11-26T07:23:39.291Z,8.10
2022-11-26T07:26:06.112Z,8.05
2022-11-26T07:28:32.831Z,7.53
2022-11-26T07:31:16.383Z,8.30
2022-11-26T07:33:44.261Z,8.15
2022-11-26T07:36:28.570Z,8.60
2022-11-26T07:38:56.365Z,8.50
2022-11-26T07:41:23.069Z,9.13
2022-11-26T07:43:50.085Z,7.60
2022-11-26T07:46:21.068Z,7.93
2022-11-26T07:48:47.790Z,8.90
2022-11-26T07:51:22.579Z,8.20
2022-11-26T07:53:49.405Z,8.73
2022-11-26T07:56:16.064Z,8.43
2022-11-26T07:58:42.701Z,7.93
2022-11-26T08:01:13.952Z,8.98
2022-11-26T08:03:41.594Z,10.25
2022-11-26T08:06:09.064Z,8.70
2022-11-26T08:08:35.709Z,8.07
2022-11-26T08:11:03.733Z,8.20
2022-11-26T08:13:30.347Z,10.30
2022-11-26T08:15:57.049Z,8.88
2022-11-26T08:18:23.799Z,8.52
2022-11-26T08:20:56.952Z,8.50
2022-11-26T08:23:24.126Z,8.38
2022-11-26T08:26:20.520Z,9.90
2022-11-26T08:28:37.697Z,9.45
2022-11-26T08:31:05.676Z,12.07
2022-11-26T08:33:32.495Z,9.98
2022-11-26T08:36:07.223Z,10.00
2022-11-26T08:38:34.978Z,10.63
2022-11-26T08:41:02.449Z,8.90
2022-11-26T08:43:51.439Z,8.90
2022-11-26T08:46:15.707Z,11.43
2022-11-26T08:48:42.518Z,9.23
2022-11-26T08:51:11.381Z,8.93
2022-11-26T08:53:38.297Z,9.75
2022-11-26T08:56:06.428Z,10.15
2022-11-26T08:58:33.867Z,9.75
2022-11-26T09:01:00.567Z,9.35
2022-11-26T09:03:27.240Z,9.82
2022-11-26T09:05:53.849Z,10.18
2022-11-26T09:08:20.396Z,12.05
2022-11-26T09:10:56.390Z,12.27
2022-11-26T09:13:22.961Z,9.88
2022-11-26T09:15:50.258Z,10.82
2022-11-26T09:18:17.639Z,9.93
2022-11-26T09:20:44.266Z,10.40
2022-11-26T09:23:10.860Z,10.63
2022-11-26T09:25:40.390Z,11.40
2022-11-26T09:28:07.206Z,11.50
2022-11-26T09:30:34.007Z,10.98
2022-11-26T09:33:00.543Z,11.07
2022-11-26T09:35:27.285Z,11.20
2022-11-26T09:37:53.989Z,12.00
2022-11-26T09:40:20.626Z,12.32
2022-11-26T09:43:06.648Z,10.70
2022-11-26T09:45:39.265Z,11.68
2022-11-26T09:48:06.100Z,11.52
2022-11-26T09:50:32.956Z,12.23
2022-11-26T09:53:05.370Z,11.52
2022-11-26T09:55:36.444Z,11.12
2022-11-26T09:58:12.598Z,12.02
2022-11-26T10:00:41.121Z,12.75
2022-11-26T10:03:16.120Z,11.95
2022-11-26T10:06:03.288Z,11.82
2022-11-26T10:08:35.829Z,10.98
2022-11-26T10:11:05.487Z,10.30
2022-11-26T10:13:57.261Z,12.27
2022-11-26T10:16:39.129Z,12.05
2022-11-26T10:19:36.814Z,11.52
2022-11-26T10:22:04.628Z,11.35
2022-11-26T10:24:42.014Z,10.63
2022-11-26T10:27:17.460Z,11.82
2022-11-26T10:32:25.614Z,14.50
2022-11-26T10:34:53.765Z,11.57
2022-11-26T10:37:22.142Z,8.98
2022-11-26T10:39:49.679Z,11.75
2022-11-26T10:42:20.230Z,9.57
2022-11-26T10:44:47.267Z,11.50
2022-11-26T10:47:24.249Z,11.32
2022-11-26T10:49:52.189Z,10.57
2022-11-26T10:52:37.145Z,10.75
2022-11-26T10:55:10.385Z,11.00
2022-11-26T10:57:37.066Z,11.07
2022-11-26T11:00:03.825Z,10.13
2022-11-26T11:02:37.299Z,10.00
2022-11-26T11:05:05.554Z,10.43
2022-11-26T11:07:38.313Z,10.27
2022-11-26T11:10:09.240Z,9.80
2022-11-26T11:12:36.814Z,10.25
2022-11-26T11:15:20.316Z,9.57
2022-11-26T11:18:25.734Z,10.68
2022-11-26T11:20:55.887Z,9.70
2022-11-26T11:23:40.015Z,8.93
2022-11-26T11:26:17.836Z,9.40
2022-11-26T11:28:50.452Z,8.82
2022-11-26T11:31:23.551Z,10.55
2022-11-26T11:33:50.862Z,10.48
2022-11-26T11:36:26.013Z,8.80
2022-11-26T11:38:57.407Z,10.68
2022-11-26T11:41:36.014Z,9.45
2022-11-26T11:44:14.868Z,10.38
2022-11-26T11:46:47.072Z,9.13
2022-11-26T11:49:50.736Z,12.50
2022-11-26T11:52:39.713Z,8.63
2022-11-26T11:55:24.441Z,9.40
2022-11-26T11:58:15.899Z,11.02
2022-11-26T12:01:03.897Z,9.45
2022-11-26T12:03:51.872Z,9.63
2022-11-26T12:06:21.238Z,9.35
2022-11-26T12:09:12.193Z,9.23
2022-11-26T12:11:50.750Z,10.35
2022-11-26T12:14:29.108Z,9.23
2022-11-26T12:17:03.365Z,10.40
2022-11-26T12:19:55.149Z,9.48
2022-11-26T12:22:35.145Z,9.38
2022-11-26T12:25:05.492Z,9.57
2022-11-26T12:27:40.389Z,8.23
2022-11-26T12:30:21.491Z,8.63
2022-11-26T12:32:51.810Z,9.43
2022-11-26T12:35:30.144Z,8.55
2022-11-26T12:38:02.632Z,9.43
2022-11-26T12:40:34.378Z,8.00
2022-11-26T12:43:17.990Z,8.35
2022-11-26T12:45:57.876Z,9.07
2022-11-26T12:48:42.586Z,9.23
2022-11-26T12:51:23.536Z,9.05
2022-11-26T12:54:14.676Z,8.95
2022-11-26T12:56:46.679Z,8.20
2022-11-26T12:59:23.837Z,8.38
2022-11-26T13:01:51.009Z,10.10
2022-11-26T13:07:34.801Z,7.50
2022-11-26T13:10:36.850Z,7.47
2022-11-26T13:13:41.033Z,7.47
2022-11-26T13:16:29.527Z,8.20
2022-11-26T13:19:02.679Z,8.27
2022-11-26T13:21:37.716Z,8.02
2022-11-26T13:24:18.535Z,7.15
2022-11-26T13:27:11.258Z,9.95
2022-11-26T13:30:17.900Z,8.57
2022-11-26T13:33:01.229Z,8.50
2022-11-26T13:36:05.481Z,7.87
2022-11-26T13:38:35.093Z,8.82
2022-11-26T13:41:11.198Z,8.13
2022-11-26T13:44:32.217Z,8.68
2022-11-26T13:47:15.466Z,7.57
2022-11-26T13:49:41.970Z,6.78
2022-11-26T13:52:16.597Z,6.57
2022-11-26T13:54:47.401Z,6.70
2022-11-26T13:57:24.196Z,9.70
2022-11-26T13:59:53.102Z,6.78
2022-11-26T14:02:35.411Z,7.47
2022-11-26T14:05:04.092Z,9.98
2022-11-26T14:07:30.803Z,8.70
2022-11-26T14:10:00.036Z,8.13
2022-11-26T14:13:03.671Z,7.10
2022-11-26T14:15:42.574Z,8.43
2022-11-26T14:18:13.370Z,6.43
2022-11-26T14:20:59.641Z,6.30
2022-11-26T14:23:44.932Z,6.15
2022-11-26T14:26:12.622Z,7.47
2022-11-26T14:28:39.223Z,7.12
2022-11-26T14:31:24.293Z,9.18
2022-11-26T14:33:55.011Z,6.77
2022-11-26T14:36:22.981Z,6.78
2022-11-26T14:39:12.952Z,6.57
2022-11-26T14:41:42.546Z,7.22
2022-11-26T14:44:12.387Z,6.95
2022-11-26T14:46:39.697Z,8.15
2022-11-26T14:49:22.177Z,6.95
2022-11-26T14:51:49.377Z,7.35
2022-11-26T14:54:18.695Z,7.50
2022-11-26T14:56:46.572Z,7.00
2022-11-26T14:59:15.205Z,7.50
2022-11-26T15:01:43.726Z,6.82
2022-11-26T15:04:23.305Z,6.87
2022-11-26T15:06:49.850Z,6.68
2022-11-26T15:09:25.485Z,7.55
2022-11-26T15:12:04.856Z,7.32
2022-11-26T15:14:52.894Z,7.15
2022-11-26T15:17:19.772Z,6.40
2022-11-26T15:19:46.380Z,7.53
2022-11-26T15:22:25.115Z,7.37
2022-11-26T15:24:51.932Z,7.35
2022-11-26T15:27:36.724Z,7.37
2022-11-26T15:30:24.568Z,7.32
2022-11-26T15:33:02.400Z,6.57
2022-11-26T15:35:29.437Z,6.40
2022-11-26T15:37:56.160Z,7.60
2022-11-26T15:40:25.453Z,6.50
2022-11-26T15:42:56.845Z,8.88
2022-11-26T15:45:24.088Z,6.32
2022-11-26T15:47:52.614Z,7.87
2022-11-26T15:50:33.235Z,7.20
2022-11-26T15:53:03.272Z,7.00
2022-11-26T15:55:31.511Z,6.75
2022-11-26T15:57:58.144Z,8.30
2022-11-26T16:00:36.758Z,6.57
2022-11-26T16:03:03.418Z,7.50
2022-11-26T16:05:35.037Z,7.28
2022-11-26T16:08:04.137Z,8.13
2022-11-26T16:10:35.392Z,7.53
2022-11-26T16:13:18.590Z,6.43
2022-11-26T16:15:55.048Z,6.20
2022-11-26T16:18:22.976Z,7.32
2022-11-26T16:20:49.589Z,6.60
2022-11-26T16:23:26.464Z,6.85
2022-11-26T16:26:11.916Z,5.87
2022-11-26T16:28:38.546Z,6.70
2022-11-26T16:31:05.184Z,7.68
2022-11-26T16:33:31.777Z,6.72
2022-11-26T16:35:58.398Z,7.57
2022-11-26T16:38:25.953Z,7.50
2022-11-26T16:40:52.618Z,7.43
2022-11-26T16:43:19.353Z,6.85
2022-11-26T16:45:46.546Z,6.03
2022-11-26T16:48:33.358Z,6.45
2022-11-26T16:51:00.029Z,6.82
2022-11-26T16:53:26.641Z,7.82
2022-11-26T16:55:53.348Z,8.75
2022-11-26T16:58:32.950Z,6.57
2022-11-26T17:00:59.645Z,6.32
2022-11-26T17:03:27.632Z,8.35
2022-11-26T17:05:56.461Z,7.72
2022-11-26T17:08:23.125Z,8.73
2022-11-26T17:10:51.040Z,9.48
2022-11-26T17:13:18.066Z,8.15
2022-11-26T17:15:45.019Z,8.18
2022-11-26T17:18:18.202Z,7.43
2022-11-26T17:20:44.907Z,7.97
2022-11-26T17:23:11.492Z,9.82
2022-11-26T17:25:38.486Z,7.53
2022-11-26T17:28:15.061Z,7.57
2022-11-26T17:30:42.524Z,7.45
2022-11-26T17:33:09.237Z,8.65
2022-11-26T17:35:35.894Z,9.85
2022-11-26T17:38:02.578Z,7.05
2022-11-26T17:40:29.689Z,7.78
2022-11-26T17:42:56.300Z,8.18
2022-11-26T17:45:23.031Z,9.35
2022-11-26T17:47:49.725Z,8.60
2022-11-26T17:50:23.795Z,7.50
2022-11-26T17:52:50.762Z,7.12
2022-11-26T17:55:18.344Z,7.45
2022-11-26T17:57:44.999Z,7.57
2022-11-26T18:00:14.592Z,8.27
2022-11-26T18:02:41.578Z,6.78
2022-11-26T18:05:08.691Z,7.25
2022-11-26T18:07:35.853Z,9.00
2022-11-26T18:10:02.568Z,8.95
2022-11-26T18:12:29.194Z,7.80
2022-11-26T18:14:56.343Z,7.78
2022-11-26T18:17:23.221Z,7.35
2022-11-26T18:19:50.298Z,8.77
2022-11-26T18:22:19.141Z,7.55
2022-11-26T18:24:56.367Z,8.32
2022-11-26T18:27:25.928Z,9.48
2022-11-26T18:29:52.519Z,8.77
2022-11-26T18:32:19.203Z,9.50
2022-11-26T18:34:45.909Z,7.43
2022-11-26T18:37:12.489Z,8.50
2022-11-26T18:39:39.350Z,8.63
2022-11-26T18:42:35.342Z,7.80
2022-11-26T18:44:52.683Z,6.75
2022-11-26T18:47:19.233Z,8.73
2022-11-26T18:49:47.669Z,7.57
2022-11-26T18:52:14.561Z,8.55
2022-11-26T18:54:41.162Z,8.27
2022-11-26T18:57:07.742Z,6.72
2022-11-26T18:59:35.054Z,6.82
2022-11-26T19:02:01.887Z,8.00
2022-11-26T19:04:28.565Z,8.20
2022-11-26T19:06:55.160Z,7.87
2022-11-26T19:09:22.778Z,9.10
2022-11-26T19:11:49.326Z,9.15
2022-11-26T19:14:16.077Z,7.30
2022-11-26T19:16:43.062Z,7.82
2022-11-26T19:19:09.769Z,6.78
2022-11-26T19:21:36.488Z,8.48
2022-11-26T19:24:04.702Z,7.78
2022-11-26T19:26:31.345Z,9.35
2022-11-26T19:29:01.577Z,6.95
2022-11-26T19:31:28.128Z,8.50
2022-11-26T19:33:55.287Z,8.00
2022-11-26T19:36:22.151Z,7.95
2022-11-26T19:38:48.750Z,7.78
2022-11-26T19:41:15.302Z,9.48
2022-11-26T19:43:42.111Z,7.75
2022-11-26T19:46:14.629Z,7.43
2022-11-26T19:48:42.134Z,8.23
2022-11-26T19:51:09.399Z,8.43
2022-11-26T19:53:36.263Z,7.32
2022-11-26T19:56:19.918Z,8.25
2022-11-26T19:58:46.505Z,8.65
2022-11-26T20:01:14.529Z,7.60
2022-11-26T20:03:41.273Z,6.95
2022-11-26T20:06:16.165Z,9.00
2022-11-26T20:08:43.031Z,8.95
2022-11-26T20:11:09.878Z,7.70
2022-11-26T20:13:36.812Z,8.05
2022-11-26T20:16:07.466Z,8.35
2022-11-26T20:18:35.590Z,10.10
2022-11-26T20:21:05.606Z,8.65
2022-11-26T20:23:32.245Z,9.98
2022-11-26T20:25:58.906Z,8.23
2022-11-26T20:28:25.524Z,9.00
2022-11-26T20:30:52.162Z,10.27
2022-11-26T20:33:19.001Z,10.15
2022-11-26T20:35:45.696Z,9.30
2022-11-26T20:38:12.389Z,11.07
2022-11-26T20:40:40.344Z,9.75
2022-11-26T20:43:06.990Z,9.05
2022-11-26T20:45:33.677Z,11.15
2022-11-26T20:48:00.265Z,9.07
2022-11-26T20:50:26.840Z,11.07
2022-11-26T20:52:53.425Z,10.07
2022-11-26T20:55:22.028Z,10.57
2022-11-26T20:57:49.289Z,9.88
2022-11-26T21:00:17.181Z,12.05
2022-11-26T21:02:44.676Z,10.73
2022-11-26T21:05:12.294Z,11.52
2022-11-26T21:07:38.968Z,9.80
2022-11-26T21:10:07.099Z,12.27
2022-11-26T21:12:33.910Z,10.40
2022-11-26T21:15:00.539Z,13.27
2022-11-26T21:17:28.038Z,13.05
2022-11-26T21:19:54.946Z,11.50
2022-11-26T21:22:21.556Z,11.18
2022-11-26T21:24:48.164Z,11.32
2022-11-26T21:27:14.792Z,12.40
2022-11-26T21:29:41.705Z,12.80
2022-11-26T21:32:09.092Z,12.10
2022-11-26T21:34:35.738Z,11.35
2022-11-26T21:37:02.365Z,12.15
2022-11-26T21:39:28.940Z,12.70
2022-11-26T21:41:55.649Z,11.57
2022-11-26T21:44:22.263Z,12.75
2022-11-26T21:46:48.898Z,12.57
2022-11-26T21:49:15.527Z,13.55
2022-11-26T21:51:42.570Z,12.75
2022-11-26T21:54:09.166Z,13.98
2022-11-26T21:56:35.738Z,12.50
2022-11-26T21:59:02.296Z,13.02
2022-11-26T22:01:30.792Z,13.50
2022-11-26T22:04:10.270Z,13.60
2022-11-26T22:06:38.051Z,13.98
2022-11-26T22:09:05.038Z,13.68
2022-11-26T22:11:35.915Z,13.50
2022-11-26T22:14:04.221Z,14.85
2022-11-26T22:16:33.109Z,13.80
2022-11-26T22:19:02.209Z,14.57
2022-11-26T22:21:39.388Z,14.65
2022-11-26T22:24:07.093Z,14.20
2022-11-26T22:26:33.644Z,13.52
2022-11-26T22:29:00.242Z,15.27
2022-11-26T22:31:27.576Z,16.92
2022-11-26T22:33:57.954Z,16.17
2022-11-26T22:36:24.661Z,13.85
2022-11-26T22:38:51.320Z,14.82
2022-11-26T22:41:17.926Z,14.05
2022-11-26T22:43:44.609Z,14.45
2022-11-26T22:46:20.374Z,15.38
2022-11-26T22:48:52.112Z,15.88
2022-11-26T22:51:18.883Z,14.65
2022-11-26T22:53:52.331Z,16.73
2022-11-26T22:56:18.992Z,14.02
2022-11-26T22:58:45.570Z,15.27
2022-11-26T23:01:18.271Z,15.27
2022-11-26T23:03:44.887Z,15.60
2022-11-26T23:06:12.369Z,14.32
2022-11-26T23:08:39.033Z,15.07
2022-11-26T23:11:13.748Z,14.95
2022-11-26T23:13:41.420Z,14.57
2022-11-26T23:16:08.558Z,16.27
2022-11-26T23:18:36.353Z,16.70
2022-11-26T23:21:07.759Z,14.95
2022-11-26T23:23:34.622Z,17.52
2022-11-26T23:26:02.408Z,15.13
2022-11-26T23:28:30.349Z,15.70
2022-11-26T23:31:08.734Z,17.12
2022-11-26T23:33:35.520Z,16.02
2022-11-26T23:36:02.150Z,16.27
2022-11-26T23:38:28.828Z,15.25
2022-11-26T23:40:56.266Z,16.17
2022-11-26T23:43:23.167Z,15.65
2022-11-26T23:45:49.913Z,14.65
2022-11-26T23:48:21.496Z,15.80
2022-11-26T23:50:48.094Z,16.33
2022-11-26T23:53:14.663Z,17.40
2022-11-26T23:55:41.260Z,16.73
2022-11-26T23:58:07.821Z,16.35
